Bottisham, United Kingdom
Current Conditions -  °F | °C
As of 4:20 PM on Wednesday 22 Oct 2014 (Local Time) from EGSC Reporting Station
Few Clouds Few Clouds  
Wind Chill: 54°   Ceiling: Unl
Heat Index: 54°   Visibility: 6mi
Dew Point: 45°   Wind: 13mph
Humidity: 72%   Direction: 260°W
Pressure: 30.21"   Gusts: NA
Location:  52.22°N, 0.26°E
Report Text: EGSC 221520Z 26011KT 9999 FEW039 12/07 Q1023
Loading
Personal Weather Stations






























Interactive Weather Map
Tropical Storm Tracking
New forecast layout! Learn more

10-Day Weather Forecast

Advertisements
Track Severe Weather on mobile